Main page
METAR-TAF:

METAR-TAF

Airports :

Hercílio Luz International Airport

Florianópolis, Santa Catarina, Brazil

latitude: 27-40S, longitude: 048-33W, elevation: 5 m

Current weather observation

The report was made 24 minutes ago, at 23:00 UTC
Wind 10 kt from the South/Southeast
Temperature 27°C
Humidity 70%
Pressure 1014 hPa
Visibility 10 km or more
Few clouds at a height of 3000 ft
Broken clouds at a height of 4500 ft

METAR: SBFL 212300Z 16010KT 9999 FEW030 BKN045 27/21 Q1014

Time: 21:24 (23:24 UTC)

Forecast

The report was made 8 hours and 54 minutes ago, at 14:30 UTC
Forecast valid from 21 at 18 UTC to 22 at 18 UTC
Wind 8 kt from the West
Visibility 10 km or more
Scattered clouds at a height of 3000 ft
Becoming
from 22 at 08 UTC to 22 at 10 UTC
Wind 6 kt from the West/Northwest

TAF: SBFL 211430Z 2118/2218 26008KT 9999 SCT030 TX32/2118Z TN22/2208Z BECMG 2208/2210 30006KT RMK PEL

Weather observations and forecasts of more than 4000 airports (METAR and TAF reports).

The available stations are represented by yellow and red dots on the map.

Hover mouse over dot to see the name of the station.

Then click to see weather observations and forecasts.

To change the map : click on the green buttons with a black cross to zoom in, on the green button with a dash to zoom out, or on the green arrows for adjacent maps.


METAR-TAF: